McGhee Tyson ANG Base, Tennessee
Current Conditions -  °F | °C
As of 9:53 AM on Monday 22 Dec 2014 (Local Time) from KTYS Reporting Station
Scattered Clouds Scattered Clouds  
Wind Chill: 47°   Ceiling: Unl
Heat Index: 47°   Visibility: 10mi
Dew Point: 40°   Wind: 3mph
Humidity: 77%   Direction: 80°E
Pressure: 30.01"   Gusts: NA
Location:  35.812°N, 84.0922°W
Report Text: KTYS 221453Z 08003KT 10SM FEW180 SCT250 08/04 A3001 RMK AO2 SLP163 T00830044 58007
Loading
Personal Weather Stations






























Interactive Weather Map New forecast layout! Learn more

10-Day Weather Forecast

Advertisements
Track Severe Weather on mobile